createdAt,value
2022-10-09T07:32:12.709Z,100366.00
2022-10-09T07:34:40.987Z,100366.00
2022-10-09T07:37:11.672Z,100361.66
2022-10-09T07:39:42.882Z,100363.91
2022-10-09T07:42:13.144Z,100359.56
2022-10-09T07:44:40.780Z,100361.78
2022-10-09T07:47:08.580Z,100352.19
2022-10-09T07:49:36.893Z,100356.91
2022-10-09T07:52:04.685Z,100350.53
2022-10-09T07:54:32.360Z,100349.66
2022-10-09T07:57:00.553Z,100361.94
2022-10-09T07:59:28.451Z,100341.72
2022-10-09T08:01:56.314Z,100347.12
2022-10-09T08:04:24.338Z,100345.31
2022-10-09T08:06:52.138Z,100338.06
2022-10-09T08:09:19.928Z,100332.88
2022-10-09T08:11:47.982Z,100338.56
2022-10-09T08:14:19.294Z,100343.81
2022-10-09T08:16:48.684Z,100330.56
2022-10-09T08:19:22.007Z,100338.53
2022-10-09T08:21:50.312Z,100331.50
2022-10-09T08:24:18.073Z,100327.22
2022-10-09T08:26:46.016Z,100331.91
2022-10-09T08:29:16.278Z,100326.09
2022-10-09T08:31:44.116Z,100322.84
2022-10-09T08:34:12.424Z,100324.53
2022-10-09T08:36:43.604Z,100314.13
2022-10-09T08:39:11.557Z,100313.38
2022-10-09T08:41:48.966Z,100309.03
2022-10-09T08:44:20.112Z,100305.50
2022-10-09T08:46:54.923Z,100307.06
2022-10-09T08:49:45.846Z,100301.41
2022-10-09T08:52:45.707Z,100301.63
2022-10-09T08:55:27.626Z,100306.31
2022-10-09T08:58:04.766Z,100302.47
2022-10-09T09:00:45.523Z,100295.25
2022-10-09T09:03:50.826Z,100288.13
2022-10-09T09:06:46.108Z,100292.84
2022-10-09T09:09:29.012Z,100286.97
2022-10-09T09:11:59.612Z,100286.59
2022-10-09T09:14:40.497Z,100288.88
2022-10-09T09:17:11.391Z,100291.31
2022-10-09T09:19:51.508Z,100289.81
2022-10-09T09:22:20.026Z,100286.84
2022-10-09T09:24:56.730Z,100286.66
2022-10-09T09:27:34.600Z,100275.84
2022-10-09T09:30:15.520Z,100279.72
2022-10-09T09:32:56.348Z,100280.22
2022-10-09T09:35:41.657Z,100281.16
2022-10-09T09:38:09.878Z,100275.19
2022-10-09T09:40:39.295Z,100275.66
2022-10-09T09:43:26.435Z,100271.16
2022-10-09T09:45:57.276Z,100270.38
2022-10-09T09:48:37.230Z,100271.88
2022-10-09T09:51:27.337Z,100264.53
2022-10-09T09:54:08.127Z,100274.25
2022-10-09T09:59:41.885Z,100258.13
2022-10-09T10:02:24.382Z,100263.25
2022-10-09T10:05:00.415Z,100268.94
2022-10-09T10:07:39.205Z,100255.62
2022-10-09T10:10:24.015Z,100264.59
2022-10-09T10:12:58.809Z,100250.97
2022-10-09T10:15:32.497Z,100249.63
2022-10-09T10:18:15.924Z,100237.91
2022-10-09T10:20:47.728Z,100233.41
2022-10-09T10:23:44.302Z,100237.19
2022-10-09T10:26:49.651Z,100230.72
2022-10-09T10:29:46.662Z,100221.66
2022-10-09T10:32:29.649Z,100227.91
2022-10-09T10:35:04.121Z,100225.47
2022-10-09T10:38:13.612Z,100212.44
2022-10-09T10:40:57.445Z,100217.25
2022-10-09T10:43:33.018Z,100212.16
2022-10-09T10:46:12.701Z,100202.22
2022-10-09T10:48:48.728Z,100192.38
2022-10-09T10:51:44.782Z,100200.94
2022-10-09T10:54:36.536Z,100191.28
2022-10-09T10:57:11.068Z,100196.69
2022-10-09T10:59:45.700Z,100187.81
2022-10-09T11:02:39.557Z,100184.19
2022-10-09T11:05:49.595Z,100177.03
2022-10-09T11:08:39.168Z,100172.47
2022-10-09T11:11:28.409Z,100174.19
2022-10-09T11:14:20.178Z,100179.19
2022-10-09T11:17:07.410Z,100171.69
2022-10-09T11:19:46.509Z,100169.22
2022-10-09T11:22:25.089Z,100165.91
2022-10-09T11:25:18.451Z,100161.59
2022-10-09T11:28:22.164Z,100165.06
2022-10-09T11:31:08.839Z,100164.28
2022-10-09T11:33:45.669Z,100156.78
2022-10-09T11:36:20.609Z,100154.25
2022-10-09T11:39:16.440Z,100153.31
2022-10-09T11:41:47.106Z,100142.75
2022-10-09T11:44:15.387Z,100144.53
2022-10-09T11:47:01.775Z,100149.88
2022-10-09T11:49:35.969Z,100142.13
2022-10-09T11:52:36.205Z,100147.72
2022-10-09T11:55:18.576Z,100141.41
2022-10-09T11:57:46.897Z,100154.94
2022-10-09T12:00:17.105Z,100149.09
2022-10-09T12:02:59.124Z,100144.94
2022-10-09T12:05:43.739Z,100147.62
2022-10-09T12:08:27.169Z,100143.41
2022-10-09T12:10:57.428Z,100137.78
2022-10-09T12:13:37.017Z,100140.47
2022-10-09T12:16:06.997Z,100140.16
2022-10-09T12:18:38.019Z,100147.22
2022-10-09T12:21:17.975Z,100157.91
2022-10-09T12:23:47.706Z,100145.34
2022-10-09T12:26:17.325Z,100150.59
2022-10-09T12:29:02.341Z,100154.88
2022-10-09T12:31:35.928Z,100159.13
2022-10-09T12:34:21.926Z,100153.09
2022-10-09T12:36:50.241Z,100157.47
2022-10-09T12:39:23.962Z,100145.53
2022-10-09T12:41:56.448Z,100158.16
2022-10-09T12:44:31.491Z,100162.78
2022-10-09T12:47:04.285Z,100152.44
2022-10-09T12:49:32.372Z,100149.91
2022-10-09T12:52:01.528Z,100156.22
2022-10-09T12:54:31.783Z,100156.34
2022-10-09T12:57:01.272Z,100154.84
2022-10-09T12:59:33.647Z,100157.41
2022-10-09T13:05:06.560Z,100139.88
2022-10-09T13:07:34.495Z,100148.19
2022-10-09T13:10:24.157Z,100154.19
2022-10-09T13:12:57.714Z,100157.00
2022-10-09T13:15:34.713Z,100160.91
2022-10-09T13:18:23.571Z,100160.06
2022-10-09T13:21:05.618Z,100165.19
2022-10-09T13:23:35.754Z,100163.63
2022-10-09T13:26:06.309Z,100162.13
2022-10-09T13:28:38.390Z,100156.38
2022-10-09T13:31:09.661Z,100154.91
2022-10-09T13:33:37.941Z,100158.75
2022-10-09T13:36:05.877Z,100158.22
2022-10-09T13:38:35.193Z,100153.06
2022-10-09T13:41:03.869Z,100159.50
2022-10-09T13:43:31.741Z,100152.34
2022-10-09T13:45:59.773Z,100159.16
2022-10-09T13:48:39.726Z,100151.44
2022-10-09T13:51:08.858Z,100146.97
2022-10-09T13:53:36.948Z,100151.81
2022-10-09T13:56:05.002Z,100148.78
2022-10-09T13:58:33.079Z,100149.25
2022-10-09T14:01:01.271Z,100140.41
2022-10-09T14:03:29.376Z,100156.53
2022-10-09T14:06:01.825Z,100146.28
2022-10-09T14:08:30.569Z,100153.50
2022-10-09T14:11:01.448Z,100147.94
2022-10-09T14:13:29.531Z,100152.16
2022-10-09T14:15:57.587Z,100150.38
2022-10-09T14:18:28.543Z,100152.13
2022-10-09T14:20:56.185Z,100146.69
2022-10-09T14:23:27.261Z,100154.22
2022-10-09T14:25:54.928Z,100145.53
2022-10-09T14:28:22.803Z,100151.12
2022-10-09T14:30:50.986Z,100149.91
2022-10-09T14:33:18.662Z,100152.97
2022-10-09T14:35:46.478Z,100142.00
2022-10-09T14:38:14.582Z,100156.81
2022-10-09T14:40:43.999Z,100151.38
2022-10-09T14:43:12.339Z,100156.22
2022-10-09T14:45:40.616Z,100153.84
2022-10-09T14:48:08.995Z,100162.03
2022-10-09T14:50:36.812Z,100163.59
2022-10-09T14:53:05.232Z,100165.16
2022-10-09T14:55:35.452Z,100159.44
2022-10-09T14:58:03.153Z,100156.25
2022-10-09T15:00:31.167Z,100156.25
2022-10-09T15:02:59.798Z,100161.94
2022-10-09T15:05:27.845Z,100166.94
2022-10-09T15:07:55.995Z,100165.25
2022-10-09T15:10:23.894Z,100166.41
2022-10-09T15:12:54.479Z,100162.25
2022-10-09T15:15:22.794Z,100170.28
2022-10-09T15:17:50.773Z,100175.84
2022-10-09T15:20:18.887Z,100157.50
2022-10-09T15:22:47.247Z,100153.19
2022-10-09T15:25:16.964Z,100175.16
2022-10-09T15:27:44.873Z,100181.41
2022-10-09T15:30:13.482Z,100174.75
2022-10-09T15:32:41.340Z,100180.47
2022-10-09T15:35:12.325Z,100172.25
2022-10-09T15:37:41.033Z,100178.19
2022-10-09T15:40:09.504Z,100176.31
2022-10-09T15:42:40.613Z,100177.84
2022-10-09T15:45:09.687Z,100175.53
2022-10-09T15:47:50.421Z,100180.63
2022-10-09T15:50:19.625Z,100179.97
2022-10-09T15:52:47.768Z,100214.56
2022-10-09T15:55:15.766Z,100218.88
2022-10-09T15:57:47.219Z,100220.81
2022-10-09T16:00:15.430Z,100223.00
2022-10-09T16:02:43.701Z,100228.31
2022-10-09T16:05:11.562Z,100238.25
2022-10-09T16:07:39.430Z,100238.19
2022-10-09T16:10:10.874Z,100240.16
2022-10-09T16:12:44.365Z,100246.94
2022-10-09T16:15:12.626Z,100249.72
2022-10-09T16:17:40.473Z,100243.41
2022-10-09T16:20:11.605Z,100251.88
2022-10-09T16:22:39.811Z,100243.97
2022-10-09T16:25:08.250Z,100263.16
2022-10-09T16:27:36.243Z,100252.38
2022-10-09T16:30:05.816Z,100246.97
2022-10-09T16:32:33.618Z,100260.09
2022-10-09T16:35:01.451Z,100257.47
2022-10-09T16:37:30.294Z,100254.19
2022-10-09T16:40:01.448Z,100258.72
2022-10-09T16:42:30.873Z,100254.59
2022-10-09T16:44:59.880Z,100270.44
2022-10-09T16:47:27.931Z,100259.78
2022-10-09T16:49:56.179Z,100261.66
2022-10-09T16:52:24.009Z,100262.94
2022-10-09T16:54:51.697Z,100265.91
2022-10-09T16:57:19.884Z,100271.69
2022-10-09T16:59:48.689Z,100277.31
2022-10-09T17:02:17.161Z,100277.53
2022-10-09T17:04:46.307Z,100271.44
2022-10-09T17:07:15.318Z,100264.72
2022-10-09T17:09:43.522Z,100268.31
2022-10-09T17:12:13.367Z,100268.78
2022-10-09T17:14:41.491Z,100276.47
2022-10-09T17:17:11.026Z,100279.97
2022-10-09T17:19:39.647Z,100276.25
2022-10-09T17:22:07.486Z,100277.66
2022-10-09T17:24:35.616Z,100273.59
2022-10-09T17:27:05.213Z,100270.13
2022-10-09T17:29:33.047Z,100273.12
2022-10-09T17:32:00.809Z,100277.78
2022-10-09T17:34:29.462Z,100280.66
2022-10-09T17:36:57.244Z,100282.34
2022-10-09T17:39:24.945Z,100277.78
2022-10-09T17:41:53.046Z,100270.13
2022-10-09T17:44:23.820Z,100273.00
2022-10-09T17:46:51.536Z,100268.22
2022-10-09T17:49:19.584Z,100270.72
2022-10-09T17:51:48.547Z,100272.13
2022-10-09T17:54:17.585Z,100281.09
2022-10-09T17:56:46.001Z,100278.69
2022-10-09T18:02:01.455Z,100295.34
2022-10-09T18:04:29.578Z,100284.53
2022-10-09T18:06:57.326Z,100286.09
2022-10-09T18:09:25.244Z,100290.28
2022-10-09T18:11:53.340Z,100302.78
2022-10-09T18:14:21.058Z,100296.09
2022-10-09T18:16:48.895Z,100296.28
2022-10-09T18:19:20.668Z,100307.34
2022-10-09T18:21:50.310Z,100312.09
2022-10-09T18:24:18.756Z,100307.47
2022-10-09T18:26:46.664Z,100307.69
2022-10-09T18:29:14.405Z,100313.84
2022-10-09T18:31:42.867Z,100315.88
2022-10-09T18:34:11.013Z,100318.47
2022-10-09T18:36:39.653Z,100329.25
2022-10-09T18:39:13.676Z,100324.09
2022-10-09T18:41:42.410Z,100331.59
2022-10-09T18:44:17.731Z,100331.78
2022-10-09T18:46:51.170Z,100338.69
2022-10-09T18:49:25.274Z,100350.72
2022-10-09T18:51:53.328Z,100344.84
2022-10-09T18:54:24.558Z,100340.66
2022-10-09T18:56:53.279Z,100352.00
2022-10-09T18:59:22.790Z,100351.16
2022-10-09T19:01:50.577Z,100353.66
2022-10-09T19:04:19.303Z,100354.19
2022-10-09T19:06:47.568Z,100353.91
2022-10-09T19:09:15.941Z,100351.56
2022-10-09T19:11:43.773Z,100356.63
2022-10-09T19:14:11.930Z,100357.75
2022-10-09T19:16:40.108Z,100361.22
2022-10-09T19:19:08.199Z,100353.66
2022-10-09T19:21:38.253Z,100364.72
2022-10-09T19:24:07.376Z,100364.81
2022-10-09T19:26:35.607Z,100374.41
2022-10-09T19:29:05.687Z,100379.13
2022-10-09T19:31:35.151Z,100371.12
2022-10-09T19:34:05.354Z,100376.94
2022-10-09T19:36:35.360Z,100382.38
2022-10-09T19:39:05.243Z,100388.16
2022-10-09T19:41:36.327Z,100387.41
2022-10-09T19:44:04.707Z,100379.13
2022-10-09T19:46:32.641Z,100380.38
2022-10-09T19:49:01.534Z,100371.38
2022-10-09T19:51:29.733Z,100380.31
2022-10-09T19:53:59.430Z,100380.63
2022-10-09T19:56:30.619Z,100383.59
2022-10-09T19:59:02.775Z,100380.44
2022-10-09T20:01:33.114Z,100379.19
2022-10-09T20:04:07.997Z,100387.78
2022-10-09T20:06:41.075Z,100381.94
2022-10-09T20:09:11.914Z,100379.41
2022-10-09T20:11:40.093Z,100384.66
2022-10-09T20:14:09.567Z,100373.53
2022-10-09T20:16:38.416Z,100384.56
2022-10-09T20:19:07.051Z,100375.72
2022-10-09T20:21:35.176Z,100381.06
2022-10-09T20:24:03.432Z,100382.03
2022-10-09T20:26:33.388Z,100382.97
2022-10-09T20:29:01.217Z,100386.66
2022-10-09T20:31:30.523Z,100383.37
2022-10-09T20:34:01.633Z,100380.91
2022-10-09T20:36:38.491Z,100386.16
2022-10-09T20:39:12.227Z,100386.25
2022-10-09T20:41:41.617Z,100377.81
2022-10-09T20:44:11.495Z,100384.03
2022-10-09T20:46:39.952Z,100387.72
2022-10-09T20:49:15.484Z,100396.53
2022-10-09T20:51:43.631Z,100391.59
2022-10-09T20:54:16.675Z,100399.16
2022-10-09T20:56:47.344Z,100399.16
2022-10-09T20:59:16.158Z,100394.75
2022-10-09T21:01:43.932Z,100394.75
2022-10-09T21:04:12.517Z,100394.13
2022-10-09T21:06:42.088Z,100387.09
2022-10-09T21:09:13.214Z,100386.13
2022-10-09T21:11:41.926Z,100391.59
2022-10-09T21:14:10.735Z,100397.69
2022-10-09T21:16:38.680Z,100392.53
2022-10-09T21:19:06.987Z,100391.78
2022-10-09T21:21:35.163Z,100394.31
2022-10-09T21:24:03.849Z,100399.56
2022-10-09T21:26:37.888Z,100392.03
2022-10-09T21:29:06.228Z,100393.69
2022-10-09T21:31:34.613Z,100400.63
2022-10-09T21:34:02.844Z,100406.06
2022-10-09T21:37:02.169Z,100405.97
2022-10-09T21:39:31.826Z,100412.19
2022-10-09T21:41:59.619Z,100413.75
2022-10-09T21:44:27.967Z,100412.78
2022-10-09T21:46:56.453Z,100418.28
2022-10-09T21:49:27.508Z,100419.75
2022-10-09T21:51:56.081Z,100419.84
2022-10-09T21:54:25.094Z,100420.69
2022-10-09T21:56:52.944Z,100425.00
2022-10-09T21:59:23.836Z,100423.53
2022-10-09T22:01:51.913Z,100431.31
2022-10-09T22:04:20.278Z,100430.25
2022-10-09T22:06:48.078Z,100431.72
2022-10-09T22:09:15.774Z,100431.72
2022-10-09T22:11:45.251Z,100435.91
2022-10-09T22:14:13.355Z,100424.59
2022-10-09T22:16:44.291Z,100429.59
2022-10-09T22:19:12.603Z,100423.53
2022-10-09T22:21:40.560Z,100423.44
2022-10-09T22:24:08.458Z,100420.56
2022-10-09T22:26:36.796Z,100425.62
2022-10-09T22:29:04.607Z,100430.88
2022-10-09T22:31:32.441Z,100436.13
2022-10-09T22:34:01.987Z,100426.97
2022-10-09T22:36:33.249Z,100444.22
2022-10-09T22:39:08.156Z,100435.59
2022-10-09T22:41:36.468Z,100439.91
2022-10-09T22:44:06.782Z,100451.06
2022-10-09T22:46:40.872Z,100451.34
2022-10-09T22:49:12.137Z,100447.25
2022-10-09T22:51:40.067Z,100461.66
2022-10-09T22:54:12.864Z,100455.47
2022-10-09T22:56:43.881Z,100460.94
2022-10-09T22:59:15.337Z,100467.56
2022-10-09T23:01:48.712Z,100467.44
2022-10-09T23:04:18.474Z,100463.87
2022-10-09T23:06:50.762Z,100467.66
2022-10-09T23:09:19.101Z,100464.06
2022-10-09T23:11:47.388Z,100474.37
2022-10-09T23:14:15.228Z,100472.69
2022-10-09T23:16:43.521Z,100458.31
2022-10-09T23:19:12.391Z,100467.75
2022-10-09T23:21:42.339Z,100467.84
2022-10-09T23:24:12.723Z,100463.56
2022-10-09T23:26:41.225Z,100470.59
2022-10-09T23:29:14.797Z,100466.19
2022-10-09T23:31:43.612Z,100465.13
2022-10-09T23:34:11.997Z,100468.72
2022-10-09T23:36:39.746Z,100465.62
2022-10-09T23:39:08.158Z,100471.63
2022-10-09T23:41:36.450Z,100470.69
2022-10-09T23:44:04.342Z,100484.25
2022-10-09T23:46:37.878Z,100480.00
2022-10-09T23:49:06.131Z,100480.94
2022-10-09T23:51:34.418Z,100489.97
2022-10-09T23:54:02.240Z,100484.16
2022-10-09T23:56:33.970Z,100488.88
2022-10-09T23:59:07.495Z,100490.22
